sensor_id;sensor_type;location;lat;lon;timestamp;temperature;humidity
41926;DHT22;27615;51.826;5.692;2022-11-04T00:01:54;11.30;99.90
41926;DHT22;27615;51.826;5.692;2022-11-04T00:04:23;11.30;99.90
41926;DHT22;27615;51.826;5.692;2022-11-04T00:06:49;11.30;99.90
41926;DHT22;27615;51.826;5.692;2022-11-04T00:09:28;11.30;99.90
41926;DHT22;27615;51.826;5.692;2022-11-04T00:11:55;11.30;99.90
41926;DHT22;27615;51.826;5.692;2022-11-04T00:14:39;11.20;99.90
41926;DHT22;27615;51.826;5.692;2022-11-04T00:17:05;11.20;99.90
41926;DHT22;27615;51.826;5.692;2022-11-04T00:19:53;11.20;99.90
41926;DHT22;27615;51.826;5.692;2022-11-04T00:22:39;11.20;99.90
41926;DHT22;27615;51.826;5.692;2022-11-04T00:25:24;11.20;99.90
41926;DHT22;27615;51.826;5.692;2022-11-04T00:28:12;11.10;99.90
41926;DHT22;27615;51.826;5.692;2022-11-04T00:30:58;11.10;99.90
41926;DHT22;27615;51.826;5.692;2022-11-04T00:33:47;11.10;99.90
41926;DHT22;27615;51.826;5.692;2022-11-04T00:36:13;11.10;99.90
41926;DHT22;27615;51.826;5.692;2022-11-04T00:38:39;11.00;99.90
41926;DHT22;27615;51.826;5.692;2022-11-04T00:41:04;11.00;99.90
41926;DHT22;27615;51.826;5.692;2022-11-04T00:43:59;11.00;99.90
41926;DHT22;27615;51.826;5.692;2022-11-04T00:46:27;10.90;99.90
41926;DHT22;27615;51.826;5.692;2022-11-04T00:48:53;10.90;99.90
41926;DHT22;27615;51.826;5.692;2022-11-04T00:51:18;10.90;99.90
41926;DHT22;27615;51.826;5.692;2022-11-04T00:53:45;10.90;99.90
41926;DHT22;27615;51.826;5.692;2022-11-04T00:56:11;10.90;99.90
41926;DHT22;27615;51.826;5.692;2022-11-04T00:58:37;10.80;99.90
41926;DHT22;27615;51.826;5.692;2022-11-04T01:01:10;10.80;99.90
41926;DHT22;27615;51.826;5.692;2022-11-04T01:03:36;10.80;99.90
41926;DHT22;27615;51.826;5.692;2022-11-04T01:06:02;10.70;99.90
41926;DHT22;27615;51.826;5.692;2022-11-04T01:08:27;10.70;99.90
41926;DHT22;27615;51.826;5.692;2022-11-04T01:10:53;10.70;99.90
41926;DHT22;27615;51.826;5.692;2022-11-04T01:13:18;10.70;99.90
41926;DHT22;27615;51.826;5.692;2022-11-04T01:15:44;10.70;99.90
41926;DHT22;27615;51.826;5.692;2022-11-04T01:18:10;10.60;99.90
41926;DHT22;27615;51.826;5.692;2022-11-04T01:20:35;10.60;99.90
41926;DHT22;27615;51.826;5.692;2022-11-04T01:23:01;10.60;99.90
41926;DHT22;27615;51.826;5.692;2022-11-04T01:25:26;10.60;99.90
41926;DHT22;27615;51.826;5.692;2022-11-04T01:27:52;10.60;99.90
41926;DHT22;27615;51.826;5.692;2022-11-04T01:30:17;10.60;99.90
41926;DHT22;27615;51.826;5.692;2022-11-04T01:32:43;10.50;99.90
41926;DHT22;27615;51.826;5.692;2022-11-04T01:35:09;10.50;99.90
41926;DHT22;27615;51.826;5.692;2022-11-04T01:37:34;10.40;99.90
41926;DHT22;27615;51.826;5.692;2022-11-04T01:40:00;10.40;99.90
41926;DHT22;27615;51.826;5.692;2022-11-04T01:42:25;10.30;99.90
41926;DHT22;27615;51.826;5.692;2022-11-04T01:44:54;10.30;99.90
41926;DHT22;27615;51.826;5.692;2022-11-04T01:50:21;10.20;99.90
41926;DHT22;27615;51.826;5.692;2022-11-04T01:53:00;10.20;99.90
41926;DHT22;27615;51.826;5.692;2022-11-04T01:55:35;10.20;99.90
41926;DHT22;27615;51.826;5.692;2022-11-04T01:58:08;10.20;99.90
41926;DHT22;27615;51.826;5.692;2022-11-04T02:00:38;10.20;99.90
41926;DHT22;27615;51.826;5.692;2022-11-04T02:05:53;10.20;99.90
41926;DHT22;27615;51.826;5.692;2022-11-04T02:08:19;10.20;99.90
41926;DHT22;27615;51.826;5.692;2022-11-04T02:10:58;10.20;99.90
41926;DHT22;27615;51.826;5.692;2022-11-04T02:13:25;10.30;99.90
41926;DHT22;27615;51.826;5.692;2022-11-04T02:16:04;10.20;99.90
41926;DHT22;27615;51.826;5.692;2022-11-04T02:18:36;10.30;99.90
41926;DHT22;27615;51.826;5.692;2022-11-04T02:26:56;10.20;99.90
41926;DHT22;27615;51.826;5.692;2022-11-04T02:46:09;10.20;99.90
41926;DHT22;27615;51.826;5.692;2022-11-04T02:48:47;10.20;99.90
41926;DHT22;27615;51.826;5.692;2022-11-04T02:51:30;10.20;99.90
41926;DHT22;27615;51.826;5.692;2022-11-04T02:56:45;10.10;99.90
41926;DHT22;27615;51.826;5.692;2022-11-04T02:59:18;10.10;99.90
41926;DHT22;27615;51.826;5.692;2022-11-04T03:01:46;10.10;99.90
41926;DHT22;27615;51.826;5.692;2022-11-04T03:04:18;10.10;99.90
41926;DHT22;27615;51.826;5.692;2022-11-04T03:06:47;10.10;99.90
41926;DHT22;27615;51.826;5.692;2022-11-04T03:09:17;10.10;99.90
41926;DHT22;27615;51.826;5.692;2022-11-04T03:11:44;10.00;99.90
41926;DHT22;27615;51.826;5.692;2022-11-04T03:14:18;10.00;99.90
41926;DHT22;27615;51.826;5.692;2022-11-04T03:16:54;10.10;99.90
41926;DHT22;27615;51.826;5.692;2022-11-04T03:19:41;10.00;99.90
41926;DHT22;27615;51.826;5.692;2022-11-04T03:22:16;10.00;99.90
41926;DHT22;27615;51.826;5.692;2022-11-04T03:24:44;10.00;99.90
41926;DHT22;27615;51.826;5.692;2022-11-04T03:30:17;9.90;99.90
41926;DHT22;27615;51.826;5.692;2022-11-04T03:32:59;9.80;99.90
41926;DHT22;27615;51.826;5.692;2022-11-04T03:35:27;9.90;99.90
41926;DHT22;27615;51.826;5.692;2022-11-04T03:37:53;9.80;99.90
41926;DHT22;27615;51.826;5.692;2022-11-04T03:40:20;9.80;99.90
41926;DHT22;27615;51.826;5.692;2022-11-04T03:42:52;9.80;99.90
41926;DHT22;27615;51.826;5.692;2022-11-04T03:45:21;9.80;99.90
41926;DHT22;27615;51.826;5.692;2022-11-04T03:47:47;9.70;99.90
41926;DHT22;27615;51.826;5.692;2022-11-04T03:52:48;9.70;99.90
41926;DHT22;27615;51.826;5.692;2022-11-04T03:55:14;9.70;99.90
41926;DHT22;27615;51.826;5.692;2022-11-04T04:00:20;9.60;99.90
41926;DHT22;27615;51.826;5.692;2022-11-04T04:05:40;9.50;99.90
41926;DHT22;27615;51.826;5.692;2022-11-04T04:08:09;9.40;99.90
41926;DHT22;27615;51.826;5.692;2022-11-04T04:10:44;9.40;99.90
41926;DHT22;27615;51.826;5.692;2022-11-04T04:15:51;9.30;99.90
41926;DHT22;27615;51.826;5.692;2022-11-04T04:18:30;9.30;99.90
41926;DHT22;27615;51.826;5.692;2022-11-04T04:21:00;9.20;99.90
41926;DHT22;27615;51.826;5.692;2022-11-04T04:23:29;9.20;99.90
41926;DHT22;27615;51.826;5.692;2022-11-04T04:26:15;9.10;99.90
41926;DHT22;27615;51.826;5.692;2022-11-04T04:29:04;9.00;99.90
41926;DHT22;27615;51.826;5.692;2022-11-04T04:31:32;9.00;99.90
41926;DHT22;27615;51.826;5.692;2022-11-04T04:34:19;9.00;99.90
41926;DHT22;27615;51.826;5.692;2022-11-04T04:36:56;8.90;99.90
41926;DHT22;27615;51.826;5.692;2022-11-04T04:39:26;8.80;99.90
41926;DHT22;27615;51.826;5.692;2022-11-04T04:42:12;8.70;99.90
41926;DHT22;27615;51.826;5.692;2022-11-04T04:44:56;8.60;99.90
41926;DHT22;27615;51.826;5.692;2022-11-04T04:47:35;8.50;99.90
41926;DHT22;27615;51.826;5.692;2022-11-04T04:50:03;8.50;99.90
41926;DHT22;27615;51.826;5.692;2022-11-04T04:52:32;8.60;99.90
41926;DHT22;27615;51.826;5.692;2022-11-04T04:54:58;8.60;99.90
41926;DHT22;27615;51.826;5.692;2022-11-04T04:57:24;8.60;99.90
41926;DHT22;27615;51.826;5.692;2022-11-04T04:59:49;8.70;99.90
41926;DHT22;27615;51.826;5.692;2022-11-04T05:02:15;8.70;99.90
41926;DHT22;27615;51.826;5.692;2022-11-04T05:04:40;8.70;99.90
41926;DHT22;27615;51.826;5.692;2022-11-04T05:07:06;8.70;99.90
41926;DHT22;27615;51.826;5.692;2022-11-04T05:09:34;8.60;99.90
41926;DHT22;27615;51.826;5.692;2022-11-04T05:11:59;8.60;99.90
41926;DHT22;27615;51.826;5.692;2022-11-04T05:14:25;8.50;99.90
41926;DHT22;27615;51.826;5.692;2022-11-04T05:16:50;8.50;99.90
41926;DHT22;27615;51.826;5.692;2022-11-04T05:19:16;8.50;99.90
41926;DHT22;27615;51.826;5.692;2022-11-04T05:21:42;8.60;99.90
41926;DHT22;27615;51.826;5.692;2022-11-04T05:24:07;8.60;99.90
41926;DHT22;27615;51.826;5.692;2022-11-04T05:26:33;8.60;99.90
41926;DHT22;27615;51.826;5.692;2022-11-04T05:28:58;8.60;99.90
41926;DHT22;27615;51.826;5.692;2022-11-04T05:31:24;8.60;99.90
41926;DHT22;27615;51.826;5.692;2022-11-04T05:33:49;8.70;99.90
41926;DHT22;27615;51.826;5.692;2022-11-04T05:36:15;8.70;99.90
41926;DHT22;27615;51.826;5.692;2022-11-04T05:38:41;8.70;99.90
41926;DHT22;27615;51.826;5.692;2022-11-04T05:41:09;8.70;99.90
41926;DHT22;27615;51.826;5.692;2022-11-04T05:43:36;8.70;99.90
41926;DHT22;27615;51.826;5.692;2022-11-04T05:46:01;8.60;99.90
41926;DHT22;27615;51.826;5.692;2022-11-04T05:48:27;8.60;99.90
41926;DHT22;27615;51.826;5.692;2022-11-04T05:50:53;8.60;99.90
41926;DHT22;27615;51.826;5.692;2022-11-04T05:53:19;8.60;99.90
41926;DHT22;27615;51.826;5.692;2022-11-04T05:55:45;8.60;99.90
41926;DHT22;27615;51.826;5.692;2022-11-04T05:58:10;8.60;99.90
41926;DHT22;27615;51.826;5.692;2022-11-04T06:00:36;8.60;99.90
41926;DHT22;27615;51.826;5.692;2022-11-04T06:03:02;8.60;99.90
41926;DHT22;27615;51.826;5.692;2022-11-04T06:05:27;8.60;99.90
41926;DHT22;27615;51.826;5.692;2022-11-04T06:07:54;8.50;99.90
41926;DHT22;27615;51.826;5.692;2022-11-04T06:10:19;8.60;99.90
41926;DHT22;27615;51.826;5.692;2022-11-04T06:12:45;8.60;99.90
41926;DHT22;27615;51.826;5.692;2022-11-04T06:15:10;8.60;99.90
41926;DHT22;27615;51.826;5.692;2022-11-04T06:17:36;8.60;99.90
41926;DHT22;27615;51.826;5.692;2022-11-04T06:20:03;8.60;99.90
41926;DHT22;27615;51.826;5.692;2022-11-04T06:22:28;8.60;99.90
41926;DHT22;27615;51.826;5.692;2022-11-04T06:24:54;8.60;99.90
41926;DHT22;27615;51.826;5.692;2022-11-04T06:27:19;8.60;99.90
41926;DHT22;27615;51.826;5.692;2022-11-04T06:29:45;8.70;99.90
41926;DHT22;27615;51.826;5.692;2022-11-04T06:32:14;8.70;99.90
41926;DHT22;27615;51.826;5.692;2022-11-04T06:34:40;8.70;99.90
41926;DHT22;27615;51.826;5.692;2022-11-04T06:37:06;8.70;99.90
41926;DHT22;27615;51.826;5.692;2022-11-04T06:39:31;8.70;99.90
41926;DHT22;27615;51.826;5.692;2022-11-04T06:41:57;8.60;99.90
41926;DHT22;27615;51.826;5.692;2022-11-04T06:44:22;8.60;99.90
41926;DHT22;27615;51.826;5.692;2022-11-04T06:46:48;8.60;99.90
41926;DHT22;27615;51.826;5.692;2022-11-04T06:49:19;8.50;99.90
41926;DHT22;27615;51.826;5.692;2022-11-04T06:51:45;8.50;99.90
41926;DHT22;27615;51.826;5.692;2022-11-04T06:54:13;8.50;99.90
41926;DHT22;27615;51.826;5.692;2022-11-04T06:56:39;8.50;99.90
41926;DHT22;27615;51.826;5.692;2022-11-04T06:59:05;8.50;99.90
41926;DHT22;27615;51.826;5.692;2022-11-04T07:01:34;8.40;99.90
41926;DHT22;27615;51.826;5.692;2022-11-04T07:04:00;8.50;99.90
41926;DHT22;27615;51.826;5.692;2022-11-04T07:06:28;8.50;99.90
41926;DHT22;27615;51.826;5.692;2022-11-04T07:08:57;8.50;99.90
41926;DHT22;27615;51.826;5.692;2022-11-04T07:11:23;8.50;99.90
41926;DHT22;27615;51.826;5.692;2022-11-04T07:13:50;8.50;99.90
41926;DHT22;27615;51.826;5.692;2022-11-04T07:16:16;8.60;99.90
41926;DHT22;27615;51.826;5.692;2022-11-04T07:18:42;8.60;99.90
41926;DHT22;27615;51.826;5.692;2022-11-04T07:21:10;8.60;99.90
41926;DHT22;27615;51.826;5.692;2022-11-04T07:23:37;8.70;99.90
41926;DHT22;27615;51.826;5.692;2022-11-04T07:26:05;8.70;99.90
41926;DHT22;27615;51.826;5.692;2022-11-04T07:28:31;8.60;99.90
41926;DHT22;27615;51.826;5.692;2022-11-04T07:30:59;8.50;99.90
41926;DHT22;27615;51.826;5.692;2022-11-04T07:33:25;8.50;99.90
41926;DHT22;27615;51.826;5.692;2022-11-04T07:35:52;8.50;99.90
41926;DHT22;27615;51.826;5.692;2022-11-04T07:38:18;8.50;99.90
41926;DHT22;27615;51.826;5.692;2022-11-04T07:40:44;8.50;99.90
41926;DHT22;27615;51.826;5.692;2022-11-04T07:43:10;8.40;99.90
41926;DHT22;27615;51.826;5.692;2022-11-04T07:45:35;8.40;99.90
41926;DHT22;27615;51.826;5.692;2022-11-04T07:48:01;8.40;99.90
41926;DHT22;27615;51.826;5.692;2022-11-04T07:50:27;8.30;99.90
41926;DHT22;27615;51.826;5.692;2022-11-04T07:52:52;8.30;99.90
41926;DHT22;27615;51.826;5.692;2022-11-04T07:55:18;8.40;99.90
41926;DHT22;27615;51.826;5.692;2022-11-04T07:57:47;8.40;99.90
41926;DHT22;27615;51.826;5.692;2022-11-04T08:00:14;8.50;99.90
41926;DHT22;27615;51.826;5.692;2022-11-04T08:02:41;8.60;99.90
41926;DHT22;27615;51.826;5.692;2022-11-04T08:05:08;8.60;99.90
41926;DHT22;27615;51.826;5.692;2022-11-04T08:07:34;8.70;99.90
41926;DHT22;27615;51.826;5.692;2022-11-04T08:09:59;8.80;99.90
41926;DHT22;27615;51.826;5.692;2022-11-04T08:12:25;8.80;99.90
41926;DHT22;27615;51.826;5.692;2022-11-04T08:14:52;8.90;99.90
41926;DHT22;27615;51.826;5.692;2022-11-04T08:17:17;9.00;99.90
41926;DHT22;27615;51.826;5.692;2022-11-04T08:19:43;9.00;99.90
41926;DHT22;27615;51.826;5.692;2022-11-04T08:22:08;9.10;99.90
41926;DHT22;27615;51.826;5.692;2022-11-04T08:24:34;9.10;99.90
41926;DHT22;27615;51.826;5.692;2022-11-04T08:27:00;9.10;99.90
41926;DHT22;27615;51.826;5.692;2022-11-04T08:29:26;9.20;99.90
41926;DHT22;27615;51.826;5.692;2022-11-04T08:31:51;9.20;99.90
41926;DHT22;27615;51.826;5.692;2022-11-04T08:34:17;9.30;99.90
41926;DHT22;27615;51.826;5.692;2022-11-04T08:36:43;9.30;99.90
41926;DHT22;27615;51.826;5.692;2022-11-04T08:39:10;9.30;99.90
41926;DHT22;27615;51.826;5.692;2022-11-04T08:41:37;9.40;99.90
41926;DHT22;27615;51.826;5.692;2022-11-04T08:44:05;9.40;99.90
41926;DHT22;27615;51.826;5.692;2022-11-04T08:46:34;9.50;99.90
41926;DHT22;27615;51.826;5.692;2022-11-04T08:49:00;9.70;99.90
41926;DHT22;27615;51.826;5.692;2022-11-04T08:51:27;9.80;99.90
41926;DHT22;27615;51.826;5.692;2022-11-04T08:53:52;9.90;99.90
41926;DHT22;27615;51.826;5.692;2022-11-04T08:56:27;10.00;99.90
41926;DHT22;27615;51.826;5.692;2022-11-04T08:58:54;10.10;99.90
41926;DHT22;27615;51.826;5.692;2022-11-04T09:01:21;10.20;99.90
41926;DHT22;27615;51.826;5.692;2022-11-04T09:03:47;10.30;99.90
41926;DHT22;27615;51.826;5.692;2022-11-04T09:06:20;10.50;99.90
41926;DHT22;27615;51.826;5.692;2022-11-04T09:08:46;10.70;99.90
41926;DHT22;27615;51.826;5.692;2022-11-04T09:11:13;10.90;99.90
41926;DHT22;27615;51.826;5.692;2022-11-04T09:13:40;10.90;99.90
41926;DHT22;27615;51.826;5.692;2022-11-04T09:16:06;11.10;99.90
41926;DHT22;27615;51.826;5.692;2022-11-04T09:18:32;11.20;99.90
41926;DHT22;27615;51.826;5.692;2022-11-04T09:21:02;11.20;99.90
41926;DHT22;27615;51.826;5.692;2022-11-04T09:23:27;11.20;99.90
41926;DHT22;27615;51.826;5.692;2022-11-04T09:25:53;11.30;99.90
41926;DHT22;27615;51.826;5.692;2022-11-04T09:28:21;11.40;99.90
41926;DHT22;27615;51.826;5.692;2022-11-04T09:30:48;11.40;99.90
41926;DHT22;27615;51.826;5.692;2022-11-04T09:33:13;11.50;99.90
41926;DHT22;27615;51.826;5.692;2022-11-04T09:35:39;11.60;99.90
41926;DHT22;27615;51.826;5.692;2022-11-04T09:38:04;11.80;99.90
41926;DHT22;27615;51.826;5.692;2022-11-04T09:40:34;11.90;99.90
41926;DHT22;27615;51.826;5.692;2022-11-04T09:43:06;12.00;99.90
41926;DHT22;27615;51.826;5.692;2022-11-04T09:45:38;12.10;99.90
41926;DHT22;27615;51.826;5.692;2022-11-04T09:48:07;12.20;99.90
41926;DHT22;27615;51.826;5.692;2022-11-04T09:50:46;12.50;99.90
41926;DHT22;27615;51.826;5.692;2022-11-04T09:53:17;12.70;99.90
41926;DHT22;27615;51.826;5.692;2022-11-04T09:58:15;13.30;99.90
41926;DHT22;27615;51.826;5.692;2022-11-04T10:00:44;13.60;99.90
41926;DHT22;27615;51.826;5.692;2022-11-04T10:20:30;13.40;99.90
41926;DHT22;27615;51.826;5.692;2022-11-04T10:23:18;13.40;99.90
41926;DHT22;27615;51.826;5.692;2022-11-04T10:28:18;13.20;99.90
41926;DHT22;27615;51.826;5.692;2022-11-04T10:30:49;13.20;99.90
41926;DHT22;27615;51.826;5.692;2022-11-04T10:33:23;13.20;99.90
41926;DHT22;27615;51.826;5.692;2022-11-04T10:35:53;13.20;99.90
41926;DHT22;27615;51.826;5.692;2022-11-04T10:39:01;13.20;99.90
41926;DHT22;27615;51.826;5.692;2022-11-04T10:41:33;13.20;99.90
41926;DHT22;27615;51.826;5.692;2022-11-04T10:49:54;13.20;99.90
41926;DHT22;27615;51.826;5.692;2022-11-04T10:52:21;13.20;99.90
41926;DHT22;27615;51.826;5.692;2022-11-04T10:54:48;13.20;99.90
41926;DHT22;27615;51.826;5.692;2022-11-04T10:57:18;13.30;99.90
41926;DHT22;27615;51.826;5.692;2022-11-04T10:59:59;13.30;99.90
41926;DHT22;27615;51.826;5.692;2022-11-04T11:02:46;13.30;99.90
41926;DHT22;27615;51.826;5.692;2022-11-04T11:05:23;13.30;99.90
41926;DHT22;27615;51.826;5.692;2022-11-04T11:07:58;13.50;99.90
41926;DHT22;27615;51.826;5.692;2022-11-04T11:10:31;13.90;99.90
41926;DHT22;27615;51.826;5.692;2022-11-04T11:13:04;14.50;99.90
41926;DHT22;27615;51.826;5.692;2022-11-04T11:15:35;15.00;99.90
41926;DHT22;27615;51.826;5.692;2022-11-04T11:18:16;15.40;99.90
41926;DHT22;27615;51.826;5.692;2022-11-04T11:20:52;15.70;99.90
41926;DHT22;27615;51.826;5.692;2022-11-04T11:23:51;15.70;99.90
41926;DHT22;27615;51.826;5.692;2022-11-04T11:26:29;15.60;99.90
41926;DHT22;27615;51.826;5.692;2022-11-04T11:28:57;15.50;99.90
41926;DHT22;27615;51.826;5.692;2022-11-04T11:31:34;15.30;99.90
41926;DHT22;27615;51.826;5.692;2022-11-04T11:34:12;15.40;99.90
41926;DHT22;27615;51.826;5.692;2022-11-04T11:36:39;15.70;99.90
41926;DHT22;27615;51.826;5.692;2022-11-04T11:39:13;16.20;99.90
41926;DHT22;27615;51.826;5.692;2022-11-04T11:44:36;18.60;97.50
41926;DHT22;27615;51.826;5.692;2022-11-04T11:50:15;18.50;96.20
41926;DHT22;27615;51.826;5.692;2022-11-04T11:52:42;19.20;95.80
41926;DHT22;27615;51.826;5.692;2022-11-04T11:55:17;19.20;94.90
41926;DHT22;27615;51.826;5.692;2022-11-04T12:00:24;19.20;93.90
41926;DHT22;27615;51.826;5.692;2022-11-04T12:05:41;19.50;93.20
41926;DHT22;27615;51.826;5.692;2022-11-04T12:11:27;19.70;91.50
41926;DHT22;27615;51.826;5.692;2022-11-04T12:14:02;19.50;91.00
41926;DHT22;27615;51.826;5.692;2022-11-04T12:17:03;19.40;90.90
41926;DHT22;27615;51.826;5.692;2022-11-04T12:30:02;18.90;90.10
41926;DHT22;27615;51.826;5.692;2022-11-04T12:32:49;19.00;90.00
41926;DHT22;27615;51.826;5.692;2022-11-04T12:40:59;19.20;89.10
41926;DHT22;27615;51.826;5.692;2022-11-04T12:46:31;18.90;88.60
41926;DHT22;27615;51.826;5.692;2022-11-04T12:54:25;19.20;87.90
41926;DHT22;27615;51.826;5.692;2022-11-04T12:57:30;19.10;87.80
41926;DHT22;27615;51.826;5.692;2022-11-04T13:00:08;19.10;87.60
41926;DHT22;27615;51.826;5.692;2022-11-04T13:02:45;19.00;87.60
41926;DHT22;27615;51.826;5.692;2022-11-04T13:08:20;18.80;87.80
41926;DHT22;27615;51.826;5.692;2022-11-04T13:10:51;18.60;87.90
41926;DHT22;27615;51.826;5.692;2022-11-04T13:13:22;18.40;88.70
41926;DHT22;27615;51.826;5.692;2022-11-04T13:15:53;18.20;89.10
41926;DHT22;27615;51.826;5.692;2022-11-04T13:18:21;18.10;89.30
41926;DHT22;27615;51.826;5.692;2022-11-04T13:20:59;18.00;89.90
41926;DHT22;27615;51.826;5.692;2022-11-04T13:23:31;18.10;89.80
41926;DHT22;27615;51.826;5.692;2022-11-04T13:26:00;18.20;89.90
41926;DHT22;27615;51.826;5.692;2022-11-04T13:28:26;18.50;89.20
41926;DHT22;27615;51.826;5.692;2022-11-04T13:31:06;19.00;88.20
41926;DHT22;27615;51.826;5.692;2022-11-04T13:34:05;19.40;87.10
41926;DHT22;27615;51.826;5.692;2022-11-04T13:39:05;20.30;85.10
41926;DHT22;27615;51.826;5.692;2022-11-04T13:44:22;20.10;83.10
41926;DHT22;27615;51.826;5.692;2022-11-04T13:46:52;19.70;83.20
41926;DHT22;27615;51.826;5.692;2022-11-04T13:49:23;19.30;82.80
41926;DHT22;27615;51.826;5.692;2022-11-04T13:52:11;19.00;83.30
41926;DHT22;27615;51.826;5.692;2022-11-04T13:54:44;18.70;83.60
41926;DHT22;27615;51.826;5.692;2022-11-04T13:57:22;18.40;83.90
41926;DHT22;27615;51.826;5.692;2022-11-04T14:16:09;18.70;84.30
41926;DHT22;27615;51.826;5.692;2022-11-04T14:18:38;18.60;84.60
41926;DHT22;27615;51.826;5.692;2022-11-04T14:21:15;18.40;85.20
41926;DHT22;27615;51.826;5.692;2022-11-04T14:23:45;18.20;85.70
41926;DHT22;27615;51.826;5.692;2022-11-04T14:26:20;18.10;86.10
41926;DHT22;27615;51.826;5.692;2022-11-04T14:29:46;17.90;86.40
41926;DHT22;27615;51.826;5.692;2022-11-04T14:31:50;17.80;86.70
41926;DHT22;27615;51.826;5.692;2022-11-04T14:34:33;17.60;87.40
41926;DHT22;27615;51.826;5.692;2022-11-04T14:37:02;17.50;87.60
41926;DHT22;27615;51.826;5.692;2022-11-04T14:39:38;17.40;88.10
41926;DHT22;27615;51.826;5.692;2022-11-04T14:42:05;17.30;88.30
41926;DHT22;27615;51.826;5.692;2022-11-04T14:44:43;17.20;88.50
41926;DHT22;27615;51.826;5.692;2022-11-04T14:47:28;17.20;88.70
41926;DHT22;27615;51.826;5.692;2022-11-04T14:52:45;17.20;88.20
41926;DHT22;27615;51.826;5.692;2022-11-04T14:55:15;17.10;88.20
41926;DHT22;27615;51.826;5.692;2022-11-04T14:57:42;16.90;88.80
41926;DHT22;27615;51.826;5.692;2022-11-04T15:02:57;16.50;89.90
41926;DHT22;27615;51.826;5.692;2022-11-04T15:05:26;16.40;90.10
41926;DHT22;27615;51.826;5.692;2022-11-04T15:07:53;16.20;90.40
41926;DHT22;27615;51.826;5.692;2022-11-04T15:10:24;16.10;90.50
41926;DHT22;27615;51.826;5.692;2022-11-04T15:12:52;16.00;90.60
41926;DHT22;27615;51.826;5.692;2022-11-04T15:15:39;15.90;90.60
41926;DHT22;27615;51.826;5.692;2022-11-04T15:18:13;15.70;90.30
41926;DHT22;27615;51.826;5.692;2022-11-04T15:20:45;15.40;89.50
41926;DHT22;27615;51.826;5.692;2022-11-04T15:23:14;15.20;89.60
41926;DHT22;27615;51.826;5.692;2022-11-04T15:25:47;15.00;88.90
41926;DHT22;27615;51.826;5.692;2022-11-04T15:28:24;14.90;89.10
41926;DHT22;27615;51.826;5.692;2022-11-04T15:33:44;14.50;89.70
41926;DHT22;27615;51.826;5.692;2022-11-04T15:36:18;14.40;90.10
41926;DHT22;27615;51.826;5.692;2022-11-04T15:38:49;14.30;90.30
41926;DHT22;27615;51.826;5.692;2022-11-04T15:41:18;14.20;90.50
41926;DHT22;27615;51.826;5.692;2022-11-04T15:44:04;14.20;90.80
41926;DHT22;27615;51.826;5.692;2022-11-04T15:46:30;14.00;91.00
41926;DHT22;27615;51.826;5.692;2022-11-04T15:49:04;14.00;91.20
41926;DHT22;27615;51.826;5.692;2022-11-04T15:51:36;14.00;91.40
41926;DHT22;27615;51.826;5.692;2022-11-04T15:54:06;13.90;91.50
41926;DHT22;27615;51.826;5.692;2022-11-04T15:56:43;13.80;91.60
41926;DHT22;27615;51.826;5.692;2022-11-04T15:59:14;13.80;91.80
41926;DHT22;27615;51.826;5.692;2022-11-04T16:01:49;13.70;92.00
41926;DHT22;27615;51.826;5.692;2022-11-04T16:04:16;13.60;92.20
41926;DHT22;27615;51.826;5.692;2022-11-04T16:06:43;13.50;92.40
41926;DHT22;27615;51.826;5.692;2022-11-04T16:11:36;13.40;92.70
41926;DHT22;27615;51.826;5.692;2022-11-04T16:14:22;13.30;92.90
41926;DHT22;27615;51.826;5.692;2022-11-04T16:16:49;13.20;93.00
41926;DHT22;27615;51.826;5.692;2022-11-04T16:19:20;13.10;93.30
41926;DHT22;27615;51.826;5.692;2022-11-04T16:21:46;13.10;93.40
41926;DHT22;27615;51.826;5.692;2022-11-04T16:24:19;13.00;93.60
41926;DHT22;27615;51.826;5.692;2022-11-04T16:26:46;13.00;93.80
41926;DHT22;27615;51.826;5.692;2022-11-04T16:29:33;12.90;93.90
41926;DHT22;27615;51.826;5.692;2022-11-04T16:32:16;12.90;94.00
41926;DHT22;27615;51.826;5.692;2022-11-04T16:34:44;12.80;94.20
41926;DHT22;27615;51.826;5.692;2022-11-04T16:37:11;12.80;94.30
41926;DHT22;27615;51.826;5.692;2022-11-04T16:39:37;12.80;94.50
41926;DHT22;27615;51.826;5.692;2022-11-04T16:42:04;12.80;94.50
41926;DHT22;27615;51.826;5.692;2022-11-04T16:44:30;12.80;94.60
41926;DHT22;27615;51.826;5.692;2022-11-04T16:46:56;12.80;94.70
41926;DHT22;27615;51.826;5.692;2022-11-04T16:49:22;12.70;94.80
41926;DHT22;27615;51.826;5.692;2022-11-04T16:51:52;12.70;94.80
41926;DHT22;27615;51.826;5.692;2022-11-04T16:54:18;12.60;95.00
41926;DHT22;27615;51.826;5.692;2022-11-04T16:56:44;12.60;95.40
41926;DHT22;27615;51.826;5.692;2022-11-04T16:59:12;12.50;95.20
41926;DHT22;27615;51.826;5.692;2022-11-04T17:01:38;12.50;95.30
41926;DHT22;27615;51.826;5.692;2022-11-04T17:04:07;12.50;95.40
41926;DHT22;27615;51.826;5.692;2022-11-04T17:06:34;12.50;95.50
41926;DHT22;27615;51.826;5.692;2022-11-04T17:09:00;12.40;95.50
41926;DHT22;27615;51.826;5.692;2022-11-04T17:11:26;12.30;95.60
41926;DHT22;27615;51.826;5.692;2022-11-04T17:13:54;12.30;95.80
41926;DHT22;27615;51.826;5.692;2022-11-04T17:16:20;12.30;95.90
41926;DHT22;27615;51.826;5.692;2022-11-04T17:18:46;12.20;96.00
41926;DHT22;27615;51.826;5.692;2022-11-04T17:21:13;12.20;96.10
41926;DHT22;27615;51.826;5.692;2022-11-04T17:23:44;12.10;96.20
41926;DHT22;27615;51.826;5.692;2022-11-04T17:26:13;12.10;96.40
41926;DHT22;27615;51.826;5.692;2022-11-04T17:28:38;12.10;96.50
41926;DHT22;27615;51.826;5.692;2022-11-04T17:31:04;12.10;96.60
41926;DHT22;27615;51.826;5.692;2022-11-04T17:33:30;12.00;96.70
41926;DHT22;27615;51.826;5.692;2022-11-04T17:35:57;11.90;96.80
41926;DHT22;27615;51.826;5.692;2022-11-04T17:38:23;11.90;96.90
41926;DHT22;27615;51.826;5.692;2022-11-04T17:40:49;11.80;97.10
41926;DHT22;27615;51.826;5.692;2022-11-04T17:43:33;11.80;97.30
41926;DHT22;27615;51.826;5.692;2022-11-04T17:46:17;11.70;97.40
41926;DHT22;27615;51.826;5.692;2022-11-04T17:49:15;11.60;97.60
41926;DHT22;27615;51.826;5.692;2022-11-04T17:51:43;11.60;97.80
41926;DHT22;27615;51.826;5.692;2022-11-04T17:54:09;11.50;98.00
41926;DHT22;27615;51.826;5.692;2022-11-04T17:56:36;11.40;98.10
41926;DHT22;27615;51.826;5.692;2022-11-04T17:59:03;11.40;98.30
41926;DHT22;27615;51.826;5.692;2022-11-04T18:01:31;11.40;98.40
41926;DHT22;27615;51.826;5.692;2022-11-04T18:03:57;11.30;98.80
41926;DHT22;27615;51.826;5.692;2022-11-04T18:06:23;11.30;98.60
41926;DHT22;27615;51.826;5.692;2022-11-04T18:08:54;11.30;98.70
41926;DHT22;27615;51.826;5.692;2022-11-04T18:11:20;11.30;98.80
41926;DHT22;27615;51.826;5.692;2022-11-04T18:14:04;11.30;98.90
41926;DHT22;27615;51.826;5.692;2022-11-04T18:16:29;11.20;99.00
41926;DHT22;27615;51.826;5.692;2022-11-04T18:18:58;11.20;99.10
41926;DHT22;27615;51.826;5.692;2022-11-04T18:21:25;11.20;99.20
41926;DHT22;27615;51.826;5.692;2022-11-04T18:23:51;11.20;99.30